Time;durP1;ratioP1;P1;durP2;ratioP2;P2;SDS_P1;SDS_P2;PMS_P1;PMS_P2;Temp;Humidity;BMP_temperature;BMP_pressure;BME280_temperature;BME280_humidity;BME280_pressure;Samples;Min_cycle;Max_cycle;Signal;HPM_P1;HPM_P2
2023/05/25 00:01:10;;;;;;;8.23;5.50;;;;;;;14.57;78.00;99253.69;4848484;29;20037;-92
2023/05/25 00:03:39;;;;;;;7.97;5.10;;;;;;;14.42;78.38;99241.19;4837304;29;20057;-91
2023/05/25 00:06:06;;;;;;;8.18;4.90;;;;;;;14.46;78.76;99266.59;4853348;29;20029;-91
2023/05/25 00:08:31;;;;;;;8.20;4.70;;;;;;;14.43;78.52;99251.75;4837518;29;20025;-92
2023/05/25 00:10:57;;;;;;;7.50;5.30;;;;;;;14.51;78.53;99259.19;4867447;29;20089;-91
2023/05/25 00:13:22;;;;;;;8.32;5.72;;;;;;;14.56;78.42;99261.03;4836576;29;20444;-91
2023/05/25 00:15:47;;;;;;;12.25;6.55;;;;;;;14.66;77.91;99258.16;4852955;29;20033;-92
2023/05/25 00:18:13;;;;;;;6.22;4.55;;;;;;;14.71;77.52;99252.66;4837551;29;20037;-92
2023/05/25 00:20:38;;;;;;;7.25;5.47;;;;;;;14.77;77.21;99253.34;4852973;29;20408;-92
2023/05/25 00:23:04;;;;;;;9.13;5.55;;;;;;;14.74;77.10;99243.13;4852700;29;20029;-93
2023/05/25 00:25:30;;;;;;;9.73;5.63;;;;;;;14.83;76.68;99246.72;4868004;29;20032;-93
2023/05/25 00:27:55;;;;;;;10.50;5.60;;;;;;;14.95;76.53;99251.66;4837550;29;20025;-93
2023/05/25 00:30:21;;;;;;;8.48;5.97;;;;;;;14.99;76.13;99254.59;4837339;29;20056;-92
2023/05/25 00:32:50;;;;;;;7.45;5.25;;;;;;;14.81;76.47;99251.66;4867808;29;20044;-93
2023/05/25 00:35:15;;;;;;;11.73;6.45;;;;;;;14.79;76.80;99258.47;4852508;29;20053;-94
2023/05/25 00:37:41;;;;;;;11.63;6.53;;;;;;;14.61;77.53;99246.59;4852584;29;20030;-93
2023/05/25 00:40:10;;;;;;;10.23;5.88;;;;;;;14.55;77.58;99262.13;4836074;29;20040;-93
2023/05/25 00:42:37;;;;;;;8.82;5.72;;;;;;;14.49;77.61;99266.81;4851074;29;20042;-93
2023/05/25 00:45:03;;;;;;;10.73;4.90;;;;;;;14.36;77.72;99259.47;4867563;29;20029;-93
2023/05/25 00:47:29;;;;;;;7.60;4.65;;;;;;;14.33;77.70;99255.41;4837105;29;20109;-93
2023/05/25 00:49:54;;;;;;;8.63;5.20;;;;;;;14.27;78.10;99250.38;4851783;29;20089;-93
2023/05/25 00:52:20;;;;;;;10.35;5.03;;;;;;;14.25;78.20;99263.41;4835893;29;20037;-94
2023/05/25 00:54:46;;;;;;;8.50;5.55;;;;;;;14.24;77.77;99259.91;4852190;29;20037;-91
2023/05/25 00:57:11;;;;;;;7.57;5.13;;;;;;;14.39;77.39;99266.97;4868041;29;20043;-92
2023/05/25 00:59:50;;;;;;;8.90;5.20;;;;;;;14.34;77.65;99248.13;4837191;29;20473;-92
2023/05/25 01:02:17;;;;;;;11.65;5.88;;;;;;;14.38;77.30;99240.19;4851200;29;20025;-92
2023/05/25 01:04:44;;;;;;;11.27;5.57;;;;;;;14.41;77.51;99266.69;4836487;29;20088;-92
2023/05/25 01:07:11;;;;;;;6.72;5.32;;;;;;;14.26;77.92;99249.59;4836772;29;20037;-92
2023/05/25 01:09:40;;;;;;;9.45;6.28;;;;;;;14.35;77.99;99261.34;4867879;29;20050;-93
2023/05/25 01:12:06;;;;;;;8.55;6.00;;;;;;;14.35;77.75;99263.25;4868022;29;20491;-91
2023/05/25 01:14:31;;;;;;;19.00;9.35;;;;;;;14.26;78.33;99267.75;4850576;29;20058;-92
2023/05/25 01:16:57;;;;;;;12.80;5.28;;;;;;;14.18;78.77;99268.41;4850327;29;20033;-92
2023/05/25 01:19:24;;;;;;;7.15;4.75;;;;;;;14.07;78.27;99263.16;4850125;29;20037;-92
2023/05/25 01:22:11;;;;;;;8.32;4.90;;;;;;;14.12;78.36;99281.22;4850631;29;20064;-92
2023/05/25 01:24:40;;;;;;;6.13;4.65;;;;;;;13.97;78.73;99262.50;4866007;29;20051;-93
2023/05/25 01:27:49;;;;;;;6.72;4.43;;;;;;;13.72;78.95;99245.53;4849523;29;20029;-93
2023/05/25 01:30:15;;;;;;;12.48;5.03;;;;;;;13.93;79.08;99281.25;4840666;29;20535;-92
2023/05/25 01:32:43;;;;;;;9.32;4.97;;;;;;;13.67;79.10;99243.69;4867600;29;20037;-93
2023/05/25 01:35:09;;;;;;;10.32;5.20;;;;;;;13.80;78.76;99257.59;4837773;29;20145;-92
2023/05/25 01:37:39;;;;;;;7.88;4.53;;;;;;;13.74;79.01;99251.47;4852934;29;20036;-94
2023/05/25 01:40:05;;;;;;;6.45;4.70;;;;;;;13.63;78.97;99248.06;4854583;29;20033;-91
2023/05/25 01:42:31;;;;;;;5.38;4.30;;;;;;;13.66;79.04;99246.72;4867958;29;20033;-91
2023/05/25 01:44:58;;;;;;;8.38;5.10;;;;;;;13.75;78.90;99263.88;4838386;29;20071;-92
2023/05/25 01:47:30;;;;;;;6.50;4.78;;;;;;;13.59;79.01;99247.03;4852690;29;20083;-94
2023/05/25 01:50:01;;;;;;;6.85;5.00;;;;;;;13.49;78.93;99239.91;4836300;29;20029;-92
2023/05/25 01:52:34;;;;;;;11.65;4.47;;;;;;;13.53;79.29;99248.25;4852667;29;20041;-92
2023/05/25 01:55:05;;;;;;;6.03;4.60;;;;;;;13.49;79.37;99249.91;4851845;29;20032;-92
2023/05/25 01:57:30;;;;;;;7.47;5.03;;;;;;;13.50;79.61;99262.34;4867518;29;20093;-92
2023/05/25 02:00:01;;;;;;;8.77;4.95;;;;;;;13.59;79.52;99257.88;4836122;29;20041;-91
2023/05/25 02:02:26;;;;;;;7.22;5.05;;;;;;;13.61;79.43;99258.38;4853423;29;20037;-92
2023/05/25 02:04:53;;;;;;;13.27;5.15;;;;;;;13.43;79.55;99232.16;4850799;29;20037;-93
2023/05/25 02:07:18;;;;;;;12.40;5.45;;;;;;;13.57;79.73;99251.94;4896622;29;20029;-91
2023/05/25 02:09:44;;;;;;;11.57;5.18;;;;;;;13.65;79.61;99274.84;4850316;29;20032;-92
2023/05/25 02:12:09;;;;;;;14.70;5.72;;;;;;;13.63;79.80;99271.63;4850753;29;20036;-92
2023/05/25 02:14:35;;;;;;;7.75;4.65;;;;;;;13.67;79.97;99276.16;4850180;29;20041;-91
2023/05/25 02:17:00;;;;;;;6.50;5.28;;;;;;;13.61;79.77;99266.50;4865554;29;20028;-91
2023/05/25 02:19:29;;;;;;;7.88;5.00;;;;;;;13.50;79.74;99262.34;4834975;29;20582;-91
2023/05/25 02:21:54;;;;;;;8.05;4.78;;;;;;;13.56;79.74;99269.28;4865878;29;20040;-92
2023/05/25 02:24:23;;;;;;;7.28;4.90;;;;;;;13.58;79.11;99244.66;4865600;29;20507;-91
2023/05/25 02:26:49;;;;;;;6.28;5.07;;;;;;;13.86;78.66;99278.91;4850288;29;20029;-91
2023/05/25 02:29:16;;;;;;;7.90;4.85;;;;;;;13.90;78.19;99281.81;4850009;29;20530;-92
2023/05/25 02:31:42;;;;;;;5.90;4.10;;;;;;;13.89;77.80;99283.72;4865682;29;20028;-92
2023/05/25 02:34:07;;;;;;;5.15;4.10;;;;;;;13.83;78.06;99303.03;4880380;29;20065;-92
2023/05/25 02:36:35;;;;;;;8.32;4.55;;;;;;;13.68;78.25;99295.94;4865645;29;20059;-92
2023/05/25 02:39:01;;;;;;;11.63;4.70;;;;;;;13.62;78.07;99288.97;4880972;29;20506;-92
2023/05/25 02:41:27;;;;;;;8.02;4.30;;;;;;;13.58;78.19;99286.03;4864847;29;20079;-92
2023/05/25 02:43:54;;;;;;;7.20;3.90;;;;;;;13.47;78.00;99288.06;4880589;29;20032;-92
2023/05/25 02:46:19;;;;;;;10.57;4.88;;;;;;;13.49;78.35;99310.22;4879963;29;20025;-92
2023/05/25 02:48:46;;;;;;;6.32;4.18;;;;;;;13.45;78.35;99313.81;4880926;29;20036;-92
2023/05/25 02:51:11;;;;;;;10.32;4.03;;;;;;;13.29;78.49;99295.03;4865963;29;20037;-92
2023/05/25 02:53:37;;;;;;;9.38;4.95;;;;;;;13.26;78.82;99292.88;4865073;29;20040;-92
2023/05/25 02:56:04;;;;;;;7.72;4.15;;;;;;;13.39;78.43;99296.81;4880990;29;20032;-92
2023/05/25 02:58:29;;;;;;;5.93;4.25;;;;;;;13.52;77.82;99292.59;4864666;29;20040;-92
2023/05/25 03:00:58;;;;;;;10.65;5.85;;;;;;;13.45;77.94;99292.97;4865244;29;20064;-92
2023/05/25 03:03:25;;;;;;;11.10;4.60;;;;;;;13.40;78.17;99309.22;4880901;29;20060;-91
2023/05/25 03:05:54;;;;;;;10.07;4.28;;;;;;;13.44;77.95;99315.69;4864473;29;20032;-91
2023/05/25 03:08:19;;;;;;;5.13;3.95;;;;;;;13.37;77.82;99304.41;4880232;29;20032;-91
2023/05/25 03:10:45;;;;;;;6.15;4.38;;;;;;;13.38;77.59;99303.31;4864861;29;20028;-91
2023/05/25 03:13:10;;;;;;;10.98;5.35;;;;;;;13.53;78.12;99337.50;4864070;29;20480;-90
2023/05/25 03:15:36;;;;;;;7.35;4.28;;;;;;;13.28;78.17;99312.34;4863643;29;20037;-92
2023/05/25 03:18:01;;;;;;;7.20;5.03;;;;;;;13.40;77.68;99311.13;4879740;29;20036;-91
2023/05/25 03:20:27;;;;;;;8.88;5.07;;;;;;;13.45;78.02;99317.31;4879610;29;20041;-92
2023/05/25 03:22:54;;;;;;;10.43;4.80;;;;;;;13.58;77.96;99332.03;4864017;29;20037;-92
2023/05/25 03:25:19;;;;;;;10.02;5.38;;;;;;;13.52;77.86;99325.06;4863503;29;20065;-91
2023/05/25 03:27:45;;;;;;;9.80;5.15;;;;;;;13.49;77.62;99322.94;4863321;29;20060;-92
2023/05/25 03:30:11;;;;;;;10.60;4.97;;;;;;;13.52;77.73;99339.38;4862370;29;20564;-91
2023/05/25 03:32:36;;;;;;;8.07;4.93;;;;;;;13.51;77.31;99332.38;4851233;29;20063;-92
2023/05/25 03:35:04;;;;;;;6.50;4.78;;;;;;;13.60;76.97;99318.22;4874187;29;20032;-92
2023/05/25 03:37:29;;;;;;;8.23;5.20;;;;;;;13.64;76.74;99316.53;4884239;29;20028;-93
2023/05/25 03:39:55;;;;;;;8.48;4.90;;;;;;;13.80;76.21;99328.78;4872656;29;20033;-93
2023/05/25 03:42:20;;;;;;;10.55;5.25;;;;;;;13.66;76.70;99306.22;4849651;29;20116;-94
2023/05/25 03:44:47;;;;;;;16.15;5.28;;;;;;;13.67;77.13;99313.25;4864230;29;20033;-93
2023/05/25 03:47:15;;;;;;;7.97;5.45;;;;;;;13.78;76.96;99324.72;4896316;29;20025;-92
2023/05/25 03:49:41;;;;;;;8.07;4.80;;;;;;;13.99;75.69;99317.16;4866298;29;20408;-93
2023/05/25 03:52:06;;;;;;;8.15;5.28;;;;;;;13.99;75.50;99315.25;4834180;29;20031;-92
2023/05/25 03:54:32;;;;;;;10.82;4.80;;;;;;;14.15;76.11;99335.59;4834202;29;20033;-94
2023/05/25 03:56:58;;;;;;;10.55;5.40;;;;;;;14.08;75.69;99315.41;4834232;29;20024;-93
2023/05/25 03:59:27;;;;;;;6.47;4.57;;;;;;;14.13;75.83;99332.38;4864791;29;20033;-93
2023/05/25 04:01:52;;;;;;;11.57;5.50;;;;;;;14.18;75.78;99336.91;4870633;29;20503;-94
2023/05/25 04:04:18;;;;;;;15.80;5.60;;;;;;;14.15;76.13;99323.94;4901539;29;20079;-94
2023/05/25 04:06:47;;;;;;;13.88;4.97;;;;;;;14.20;75.96;99332.00;4901801;29;20040;-93
2023/05/25 04:09:22;;;;;;;9.27;5.30;;;;;;;14.09;75.46;99312.41;4903450;29;20024;-93
2023/05/25 04:11:49;;;;;;;7.47;5.18;;;;;;;14.41;74.74;99331.72;4868069;29;20037;-93
2023/05/25 04:14:15;;;;;;;7.15;5.20;;;;;;;14.34;74.85;99316.63;4868596;29;20097;-95
2023/05/25 04:16:44;;;;;;;9.27;5.60;;;;;;;14.44;74.92;99321.06;4868521;29;20032;-91
2023/05/25 04:19:10;;;;;;;10.18;5.80;;;;;;;14.53;75.33;99343.69;4870849;29;20052;-91
2023/05/25 04:21:35;;;;;;;7.95;5.25;;;;;;;14.57;75.39;99335.00;4869301;29;20029;-92
2023/05/25 04:24:02;;;;;;;8.45;5.38;;;;;;;14.61;74.86;99342.25;4866442;29;20024;-91
2023/05/25 04:26:27;;;;;;;7.78;5.10;;;;;;;14.64;75.29;99344.38;4890256;29;20039;-92
2023/05/25 04:28:53;;;;;;;7.93;4.80;;;;;;;14.69;74.81;99344.28;4877225;29;20144;-91
2023/05/25 04:31:19;;;;;;;8.52;4.45;;;;;;;14.78;74.32;99349.03;4870121;29;20476;-92
2023/05/25 04:33:48;;;;;;;8.90;5.40;;;;;;;14.77;74.08;99342.00;4890871;29;20111;-93
2023/05/25 04:36:16;;;;;;;6.18;4.38;;;;;;;15.04;73.64;99369.16;4910453;29;20052;-92
2023/05/25 04:38:47;;;;;;;8.07;4.78;;;;;;;14.84;74.19;99345.13;4896748;29;20043;-95
2023/05/25 04:41:13;;;;;;;11.48;4.93;;;;;;;15.07;73.88;99379.44;4887394;29;20045;-96
2023/05/25 04:43:39;;;;;;;7.00;4.60;;;;;;;15.09;73.17;99363.66;4871314;29;20175;-96
2023/05/25 04:46:06;;;;;;;6.35;4.32;;;;;;;15.31;73.14;99378.44;4888795;29;20077;-95
2023/05/25 04:48:33;;;;;;;7.50;4.47;;;;;;;15.30;72.41;99355.97;4888126;29;20023;-95
2023/05/25 04:51:01;;;;;;;10.85;4.60;;;;;;;15.43;71.59;99348.13;4924039;29;20068;-94
2023/05/25 04:53:28;;;;;;;9.48;5.00;;;;;;;15.55;70.89;99356.56;4891383;29;20024;-95
2023/05/25 04:55:54;;;;;;;6.55;4.10;;;;;;;15.61;70.72;99349.16;4906956;29;20024;-94
2023/05/25 04:58:21;;;;;;;8.60;4.32;;;;;;;15.78;69.92;99346.63;4911548;29;20525;-96
2023/05/25 05:00:46;;;;;;;5.70;3.70;;;;;;;15.95;69.07;99346.78;4893060;29;20099;-96
2023/05/25 05:03:15;;;;;;;7.07;3.85;;;;;;;16.02;68.38;99342.88;4907602;29;20133;-94
2023/05/25 05:05:43;;;;;;;5.10;4.05;;;;;;;16.21;68.37;99354.41;4907986;29;20024;-96
2023/05/25 05:08:21;;;;;;;8.25;3.97;;;;;;;16.23;68.43;99348.63;4893708;29;20035;-94
2023/05/25 05:10:46;;;;;;;4.97;3.88;;;;;;;16.31;67.70;99359.59;4892380;29;20509;-96
2023/05/25 05:16:07;;;;;;;11.77;5.88;;;;;;;16.34;67.48;99350.81;4895328;29;20070;-96
2023/05/25 05:18:32;;;;;;;8.68;6.25;;;;;;;16.36;66.84;99343.16;4890957;29;20032;-95
2023/05/25 05:21:00;;;;;;;8.38;5.70;;;;;;;16.74;66.18;99367.25;4900755;29;20039;-96
2023/05/25 05:23:44;;;;;;;9.88;6.00;;;;;;;16.66;66.44;99354.41;4851833;29;20037;-95
2023/05/25 05:26:10;;;;;;;8.80;5.13;;;;;;;16.83;67.00;99369.28;4821030;29;20547;-95
2023/05/25 05:31:37;;;;;;;10.30;6.32;;;;;;;16.96;66.74;99361.06;4813730;29;20053;-94
2023/05/25 05:34:03;;;;;;;10.70;6.80;;;;;;;17.04;66.35;99355.97;4863139;29;20076;-95
2023/05/25 05:36:29;;;;;;;9.10;6.07;;;;;;;17.25;65.89;99364.41;4852633;29;20029;-92
2023/05/25 05:38:55;;;;;;;23.85;10.80;;;;;;;17.26;65.37;99353.19;4867288;29;20038;-92
2023/05/25 05:41:20;;;;;;;10.30;5.57;;;;;;;17.43;64.90;99376.97;4840322;29;20045;-95
2023/05/25 05:44:15;;;;;;;14.45;7.55;;;;;;;17.69;64.73;99392.59;4844551;29;20064;-94
2023/05/25 05:47:29;;;;;;;8.55;5.80;;;;;;;17.71;64.77;99382.19;4855667;29;20042;-95
2023/05/25 06:03:46;;;;;;;8.38;5.50;;;;;;;18.33;63.14;99400.31;4780024;30;20058;-93
2023/05/25 06:06:14;;;;;;;11.95;8.25;;;;;;;18.34;62.53;99394.53;4768862;30;20051;-94
2023/05/25 06:08:42;;;;;;;10.65;6.03;;;;;;;18.57;61.36;99410.72;4802822;29;20050;-92
2023/05/25 06:11:44;;;;;;;;;;;;;;;;;;;;;
2023/05/25 06:14:20;;;;;;;;;;;;;;;19.06;60.55;99418.75;4811978;29;20170;-94
2023/05/25 06:17:09;;;;;;;17.63;6.20;;;;;;;19.07;60.93;99420.34;4815850;29;19980;-92
2023/05/25 06:19:37;;;;;;;10.82;6.57;;;;;;;19.13;60.34;99416.31;4848610;29;20078;-94
2023/05/25 06:22:05;;;;;;;9.15;6.28;;;;;;;19.21;60.26;99417.44;4845733;29;20041;-95
2023/05/25 06:24:31;;;;;;;12.82;6.15;;;;;;;19.12;60.21;99395.63;4848175;29;20051;-91
2023/05/25 06:26:56;;;;;;;187.32;109.70;;;;;;;19.46;59.49;99418.50;4874676;29;20021;-93
2023/05/25 06:29:22;;;;;;;14.85;8.60;;;;;;;19.51;58.78;99405.47;4851778;29;20092;-93
2023/05/25 06:31:50;;;;;;;15.52;7.25;;;;;;;19.61;59.61;99412.50;4816984;29;20045;-93
2023/05/25 06:34:27;;;;;;;;;;;;;;;;;;;;;
2023/05/25 06:36:58;;;;;;;;;;;;;;;19.67;59.41;99430.31;4838926;29;20153;-94
2023/05/25 06:39:27;;;;;;;12.43;6.65;;;;;;;19.72;59.58;99430.16;4817126;29;19962;-93
2023/05/25 06:41:53;;;;;;;9.50;6.05;;;;;;;19.62;59.48;99414.09;4829771;29;20054;-94
2023/05/25 06:47:15;;;;;;;9.57;6.45;;;;;;;19.93;59.47;99418.47;5027303;23;20089;-96
2023/05/25 06:50:01;;;;;;;67.93;40.05;;;;;;;20.30;58.46;99446.88;4906752;29;20043;-93
2023/05/25 06:52:30;;;;;;;11.07;6.10;;;;;;;20.26;57.97;99432.28;4921653;29;20175;-92
2023/05/25 06:54:55;;;;;;;9.50;5.97;;;;;;;20.34;56.91;99423.22;4890188;29;20071;-90
2023/05/25 06:57:23;;;;;;;12.38;5.80;;;;;;;20.51;57.20;99432.44;4929672;29;20043;-93
2023/05/25 06:59:49;;;;;;;12.13;7.00;;;;;;;20.42;57.49;99431.69;4889922;29;20047;-92
2023/05/25 07:02:18;;;;;;;11.05;6.30;;;;;;;20.56;57.62;99426.75;4921166;29;20131;-95
2023/05/25 07:04:43;;;;;;;10.98;6.50;;;;;;;20.47;57.86;99412.34;4891729;29;20073;-96
2023/05/25 07:07:11;;;;;;;16.58;7.60;;;;;;;20.68;57.48;99420.56;4889608;29;20475;-93
2023/05/25 07:09:38;;;;;;;7.25;4.10;;;;;;;20.79;56.40;99405.34;4891397;29;20028;-94
2023/05/25 07:12:13;;;;;;;4.57;3.70;;;;;;;20.96;55.17;99413.41;4910419;29;20032;-94
2023/05/25 07:14:42;;;;;;;10.68;3.92;;;;;;;21.01;55.76;99426.06;4911533;29;20115;-96
2023/05/25 07:17:11;;;;;;;4.70;3.70;;;;;;;21.13;55.00;99420.63;4908922;29;20068;-96
2023/05/25 07:19:50;;;;;;;6.28;3.63;;;;;;;21.32;54.86;99422.06;4878292;29;20032;-96
2023/05/25 07:22:44;;;;;;;;;;;;;;;;;;;;;
2023/05/25 07:27:54;;;;;;;8.50;4.10;;;;;;;21.69;54.38;99424.88;4909418;29;20063;-96
2023/05/25 07:34:33;;;;;;;4.50;3.42;;;;;;;21.75;53.56;99396.91;4908310;29;20038;-95
2023/05/25 07:36:43;;;;;;;7.95;4.20;;;;;;;21.90;53.93;99411.84;4882796;29;20048;-95
2023/05/25 07:39:10;;;;;;;6.80;4.15;;;;;;;22.09;53.33;99421.44;4886413;29;20044;-94
2023/05/25 07:41:36;;;;;;;8.13;3.67;;;;;;;22.20;53.24;99422.56;4868465;29;20029;-93
2023/05/25 07:44:01;;;;;;;6.53;4.13;;;;;;;22.11;53.64;99414.47;4869290;29;20044;-92
2023/05/25 07:46:27;;;;;;;15.50;8.55;;;;;;;22.22;52.45;99419.47;4888119;29;20043;-92
2023/05/25 07:48:55;;;;;;;43.00;28.80;;;;;;;22.28;53.72;99429.09;4870225;29;20116;-93
2023/05/25 07:51:31;;;;;;;19.48;12.60;;;;;;;22.38;53.78;99421.19;4858614;29;20088;-93
2023/05/25 07:54:08;;;;;;;5.65;3.55;;;;;;;22.39;52.50;99425.53;4887540;29;20036;-95
2023/05/25 07:56:39;;;;;;;4.80;3.15;;;;;;;22.47;52.90;99423.78;4885033;29;20046;-92
2023/05/25 07:59:08;;;;;;;7.22;3.40;;;;;;;22.56;52.56;99427.22;4860006;29;20032;-96
2023/05/25 08:01:34;;;;;;;6.70;3.42;;;;;;;22.63;52.29;99418.38;4857211;29;20037;-93
2023/05/25 08:04:07;;;;;;;5.80;3.42;;;;;;;22.63;52.19;99417.59;4868855;29;20037;-95
2023/05/25 08:06:33;;;;;;;6.97;2.78;;;;;;;22.68;51.25;99409.91;4902305;29;20037;-93
2023/05/25 08:09:17;;;;;;;;;;;;;;;;;;;;;
2023/05/25 08:11:44;;;;;;;7.00;3.80;;;;;;;22.78;50.33;99400.38;4903195;29;20072;-90
2023/05/25 08:14:13;;;;;;;10.57;7.40;;;;;;;22.99;49.22;99425.69;4876576;29;20036;-92
2023/05/25 08:16:38;;;;;;;5.43;3.72;;;;;;;22.98;50.07;99404.84;4883114;29;20055;-92
2023/05/25 08:19:06;;;;;;;6.07;3.60;;;;;;;23.16;50.27;99430.09;4856726;29;20036;-94
2023/05/25 08:21:33;;;;;;;7.30;3.50;;;;;;;22.95;49.94;99400.06;4887757;29;20032;-94
2023/05/25 08:24:02;;;;;;;5.28;3.53;;;;;;;23.15;49.87;99409.25;4877655;29;20036;-94
2023/05/25 08:26:29;;;;;;;5.38;3.20;;;;;;;23.22;49.42;99414.13;4890119;29;20071;-94
2023/05/25 08:28:55;;;;;;;6.45;3.40;;;;;;;23.09;49.75;99388.69;4875630;29;20029;-91
2023/05/25 08:31:21;;;;;;;6.03;3.30;;;;;;;23.22;49.01;99405.88;4888956;29;20145;-94
2023/05/25 08:33:54;;;;;;;8.68;4.03;;;;;;;23.18;49.09;99391.28;4873219;29;20021;-92
2023/05/25 08:36:19;;;;;;;4.50;3.42;;;;;;;23.16;49.19;99394.38;4872372;29;20047;-93
2023/05/25 08:38:45;;;;;;;4.40;3.60;;;;;;;23.09;49.80;99398.88;4871220;29;20036;-94
2023/05/25 08:41:11;;;;;;;5.25;3.47;;;;;;;23.05;49.61;99406.22;4886882;29;20037;-93
2023/05/25 08:43:36;;;;;;;7.20;3.25;;;;;;;23.28;49.12;99415.47;4886781;29;20028;-93
2023/05/25 08:46:08;;;;;;;5.90;2.97;;;;;;;23.14;49.52;99396.69;4891837;29;20089;-94
2023/05/25 08:48:36;;;;;;;;;;;;;;;23.40;49.81;99423.63;4880061;29;20064;-94
2023/05/25 08:51:09;;;;;;;4.78;2.67;;;;;;;23.19;48.22;99384.63;4906775;29;19912;-95
2023/05/25 08:53:38;;;;;;;6.20;3.70;;;;;;;23.52;48.03;99416.47;4897189;29;20159;-95
2023/05/25 09:00:24;;;;;;;5.55;3.08;;;;;;;23.70;48.76;99408.66;4889103;29;20084;-94
2023/05/25 09:02:53;;;;;;;8.00;2.92;;;;;;;23.62;48.16;99404.94;4904880;29;20044;-93
2023/05/25 09:08:49;;;;;;;5.70;4.05;;;;;;;23.56;47.01;99385.19;4824212;29;20066;-93
2023/05/25 09:11:14;;;;;;;5.18;3.50;;;;;;;23.69;46.57;99390.56;4877813;29;20051;-95
2023/05/25 09:13:46;;;;;;;75.45;67.07;;;;;;;23.63;46.96;99361.75;4876264;29;20079;-96
2023/05/25 09:16:28;;;;;;;17.95;10.07;;;;;;;23.79;46.72;99376.31;4896746;29;20033;-96
2023/05/25 09:18:56;;;;;;;11.05;6.30;;;;;;;23.86;45.40;99373.72;4878965;29;20043;-96
2023/05/25 09:21:30;;;;;;;5.68;3.25;;;;;;;23.90;43.46;99376.56;4867513;29;20059;-95
2023/05/25 09:23:59;;;;;;;3.42;2.38;;;;;;;23.94;44.10;99358.19;4891719;29;20047;-96
2023/05/25 09:26:28;;;;;;;8.23;6.47;;;;;;;24.06;44.74;99357.28;4876942;29;20033;-92
2023/05/25 09:28:56;;;;;;;7.15;2.47;;;;;;;24.25;43.85;99387.56;4910609;29;20028;-94
2023/05/25 09:31:26;;;;;;;2.90;1.85;;;;;;;24.17;41.67;99380.31;4893554;29;20040;-95
2023/05/25 09:33:58;;;;;;;3.53;2.35;;;;;;;24.03;43.02;99357.97;4911958;29;20047;-94
2023/05/25 09:36:28;;;;;;;4.80;2.45;;;;;;;24.10;43.62;99355.41;4906358;29;20032;-93
2023/05/25 09:38:57;;;;;;;2.92;2.28;;;;;;;24.10;43.96;99363.66;4872040;29;20065;-94
2023/05/25 09:41:28;;;;;;;6.63;2.22;;;;;;;24.32;41.86;99360.22;4906037;29;20096;-96
2023/05/25 09:47:43;;;;;;;6.78;2.42;;;;;;;24.48;40.37;99345.56;4882413;29;20053;-96
2023/05/25 09:50:12;;;;;;;4.90;2.40;;;;;;;24.69;39.08;99345.22;4873897;29;20092;-93
2023/05/25 09:52:46;;;;;;;5.40;2.80;;;;;;;24.94;40.83;99363.00;4880770;29;20048;-94
2023/05/25 10:01:36;;;;;;;4.88;2.17;;;;;;;24.59;41.03;99346.59;4889526;29;20354;-95
2023/05/25 10:07:49;;;;;;;2.55;1.85;;;;;;;24.85;39.44;99332.16;4809767;29;20073;-93
2023/05/25 10:10:17;;;;;;;9.88;2.20;;;;;;;24.93;40.13;99313.81;4840688;29;20100;-95
2023/05/25 10:12:51;;;;;;;5.97;2.42;;;;;;;25.19;40.70;99305.59;4869758;29;20024;-95
2023/05/25 10:15:24;;;;;;;6.15;2.50;;;;;;;25.31;38.95;99309.34;4838717;29;20048;-94
2023/05/25 10:17:54;;;;;;;3.85;1.90;;;;;;;25.37;38.08;99294.88;4842664;29;20092;-95
2023/05/25 10:20:21;;;;;;;3.95;2.17;;;;;;;25.52;38.74;99312.44;4854380;29;20112;-93
2023/05/25 10:22:55;;;;;;;6.95;2.53;;;;;;;25.61;39.25;99304.72;4851853;29;20025;-94
2023/05/25 10:25:47;;;;;;;10.32;5.20;;;;;;;25.64;36.99;99292.13;4869675;29;20028;-95
2023/05/25 10:28:30;;;;;;;4.25;2.50;;;;;;;26.04;38.42;99318.31;4825525;29;20065;-95
2023/05/25 10:31:13;;;;;;;3.88;2.03;;;;;;;26.05;38.43;99314.41;4876248;29;20031;-96
2023/05/25 10:33:39;;;;;;;4.00;2.17;;;;;;;25.93;38.23;99285.06;4877493;29;20395;-94
2023/05/25 10:42:53;;;;;;;5.50;2.25;;;;;;;26.28;38.38;99310.75;4838406;29;20048;-94
2023/05/25 10:45:19;;;;;;;5.60;2.28;;;;;;;26.25;39.11;99300.44;4802573;29;20038;-95
2023/05/25 10:47:49;;;;;;;3.95;2.05;;;;;;;26.19;38.47;99305.53;4820762;29;20058;-95
2023/05/25 10:50:25;;;;;;;5.63;2.47;;;;;;;26.16;38.41;99296.00;4837703;29;20049;-96
2023/05/25 10:53:19;;;;;;;7.95;2.75;;;;;;;26.13;38.32;99301.50;4854369;29;20089;-94
2023/05/25 10:56:12;;;;;;;7.90;2.40;;;;;;;26.25;38.36;99283.88;4853083;29;20064;-96
2023/05/25 10:58:40;;;;;;;9.60;3.13;;;;;;;26.13;39.79;99295.97;4851398;29;20464;-94
2023/05/25 11:01:09;;;;;;;8.25;5.07;;;;;;;25.86;40.16;99284.97;4865097;29;20086;-94
2023/05/25 11:03:43;;;;;;;15.18;10.35;;;;;;;26.05;40.44;99294.31;4841271;29;20525;-95
2023/05/25 11:06:17;;;;;;;9.48;6.47;;;;;;;26.05;40.10;99274.97;4853712;29;20036;-94
2023/05/25 11:09:03;;;;;;;4.20;2.53;;;;;;;26.23;39.07;99292.56;4851871;29;20123;-94
2023/05/25 11:11:44;;;;;;;17.50;6.72;;;;;;;26.47;38.91;99288.47;4866535;29;20039;-94
2023/05/25 11:14:31;;;;;;;18.08;11.45;;;;;;;26.71;38.44;99289.97;4885374;29;20503;-95
2023/05/25 11:17:35;;;;;;;10.07;7.25;;;;;;;27.05;37.66;99267.75;4868857;29;20037;-92
2023/05/25 11:20:50;;;;;;;7.85;3.67;;;;;;;27.15;38.18;99249.69;4828973;29;20034;-96
2023/05/25 11:26:31;;;;;;;4.85;2.40;;;;;;;26.99;37.15;99247.16;5103821;23;20068;-95
2023/05/25 11:29:40;;;;;;;6.50;2.42;;;;;;;26.74;37.63;99264.31;4935072;29;20067;-96
2023/05/25 11:32:28;;;;;;;8.23;2.75;;;;;;;26.64;37.65;99286.31;4929148;29;20028;-94
2023/05/25 11:35:05;;;;;;;6.60;3.13;;;;;;;26.72;37.72;99261.16;4883627;29;20048;-95
2023/05/25 11:37:56;;;;;;;7.05;2.97;;;;;;;26.77;37.76;99254.47;4861395;29;20056;-96
2023/05/25 11:43:08;;;;;;;3.28;1.90;;;;;;;27.01;35.31;99247.59;5324911;23;20075;-94
2023/05/25 11:52:57;;;;;;;;;;;;;;;;;;;;;
2023/05/25 11:55:39;;;;;;;2.72;1.50;;;;;;;27.27;29.54;99274.28;4888405;29;20037;-95
2023/05/25 11:58:11;;;;;;;17.83;9.95;;;;;;;26.70;31.90;99285.59;4878428;29;20024;-94
2023/05/25 12:01:03;;;;;;;8.38;5.20;;;;;;;26.50;34.93;99295.22;4913445;29;20083;-96
2023/05/25 12:03:48;;;;;;;3.85;2.45;;;;;;;25.68;36.55;99292.19;4890274;29;20033;-92
2023/05/25 12:06:33;;;;;;;5.40;2.40;;;;;;;25.59;37.00;99307.03;4871391;29;20141;-93
2023/05/25 12:09:13;;;;;;;5.93;2.38;;;;;;;25.40;38.72;99287.81;4887059;29;20107;-96
2023/05/25 12:12:02;;;;;;;4.82;2.70;;;;;;;25.19;39.94;99277.22;4880358;29;20051;-95
2023/05/25 12:14:40;;;;;;;4.97;2.80;;;;;;;25.14;40.58;99263.78;4872565;29;20033;-95
2023/05/25 12:17:19;;;;;;;8.05;2.90;;;;;;;24.96;41.71;99277.25;4877895;29;20040;-96
2023/05/25 12:19:45;;;;;;;3.65;2.20;;;;;;;24.74;41.44;99268.63;4848763;29;20166;-91
2023/05/25 12:22:11;;;;;;;4.63;2.50;;;;;;;24.87;40.93;99296.00;4834295;29;20041;-95
2023/05/25 12:24:42;;;;;;;5.22;3.63;;;;;;;24.68;42.26;99292.13;4821858;29;20045;-96
2023/05/25 12:27:21;;;;;;;7.47;2.65;;;;;;;24.65;41.16;99301.09;4858506;29;20550;-95
2023/05/25 12:29:48;;;;;;;7.95;1.92;;;;;;;24.69;39.77;99296.44;4886811;29;20048;-94
2023/05/25 12:32:21;;;;;;;8.57;2.88;;;;;;;24.74;40.58;99309.94;4906071;29;20143;-96
2023/05/25 12:34:50;;;;;;;6.95;2.72;;;;;;;24.59;39.96;99297.84;4892683;29;20503;-94
2023/05/25 12:37:22;;;;;;;6.30;2.97;;;;;;;24.57;40.90;99291.09;4872146;29;20052;-95
2023/05/25 12:40:11;;;;;;;3.60;2.40;;;;;;;24.76;40.82;99288.34;4880833;29;20412;-95
2023/05/25 12:42:37;;;;;;;6.22;2.80;;;;;;;24.80;41.52;99278.19;4870460;29;20048;-95
2023/05/25 12:45:06;;;;;;;7.70;2.45;;;;;;;24.99;41.30;99262.75;4883970;29;20032;-95
2023/05/25 12:47:34;;;;;;;4.63;2.10;;;;;;;25.30;40.78;99283.75;4893602;29;20044;-95
2023/05/25 12:50:39;;;;;;;3.97;2.10;;;;;;;25.49;39.98;99282.84;4894728;29;20036;-96
2023/05/25 12:58:35;;;;;;;6.10;3.08;;;;;;;25.43;43.88;99287.09;4868582;29;20060;-95
2023/05/25 13:01:09;;;;;;;6.50;4.32;;;;;;;25.16;47.24;99275.22;4850541;29;20036;-96
2023/05/25 13:03:58;;;;;;;5.88;3.38;;;;;;;24.77;47.94;99300.91;5024211;23;20072;-96
2023/05/25 13:19:51;;;;;;;6.93;3.17;;;;;;;24.16;48.03;99290.69;4849918;29;20112;-96
2023/05/25 13:22:16;;;;;;;5.13;3.45;;;;;;;24.03;48.73;99280.97;4859718;29;20044;-95
2023/05/25 13:24:42;;;;;;;9.27;2.92;;;;;;;23.82;48.81;99276.59;4868577;29;20044;-95